createdAt,value
2017-10-18T00:00:12.781Z,101058.39
2017-10-18T00:02:41.123Z,101047.80
2017-10-18T00:05:09.439Z,101048.74
2017-10-18T00:07:37.785Z,101044.78
2017-10-18T00:10:06.882Z,101041.31
2017-10-18T00:12:36.016Z,101043.87
2017-10-18T00:15:04.372Z,101044.28
2017-10-18T00:17:32.739Z,101042.51
2017-10-18T00:20:01.835Z,101049.40
2017-10-18T00:22:30.965Z,101038.89
2017-10-18T00:24:59.280Z,101038.23
2017-10-18T00:27:27.646Z,101041.16
2017-10-18T00:29:55.987Z,101039.89
2017-10-18T00:32:24.330Z,101034.66
2017-10-18T00:34:52.645Z,101041.09
2017-10-18T00:37:20.986Z,101029.55
2017-10-18T00:39:50.111Z,101030.08
2017-10-18T00:42:18.447Z,101024.02
2017-10-18T00:44:46.761Z,101021.23
2017-10-18T00:47:15.107Z,101014.77
2017-10-18T00:49:43.432Z,101024.13
2017-10-18T00:52:11.755Z,101024.05
2017-10-18T00:54:40.093Z,101019.59
2017-10-18T00:57:08.423Z,101018.11
2017-10-18T00:59:36.752Z,101014.98
2017-10-18T01:02:05.096Z,101001.62
2017-10-18T01:04:34.192Z,101000.16
2017-10-18T01:07:03.311Z,101000.24
2017-10-18T01:09:31.644Z,101000.06
2017-10-18T01:11:59.981Z,101004.05
2017-10-18T01:14:28.333Z,101000.22
2017-10-18T01:16:56.654Z,101001.92
2017-10-18T01:19:24.977Z,100989.94
2017-10-18T01:21:54.075Z,100983.63
2017-10-18T01:24:23.191Z,100971.78
2017-10-18T01:26:51.686Z,100983.67
2017-10-18T01:29:20.025Z,100973.27
2017-10-18T01:31:48.492Z,100975.90
2017-10-18T01:34:16.821Z,100977.67
2017-10-18T01:36:45.152Z,100976.64
2017-10-18T01:39:13.517Z,100975.48
2017-10-18T01:41:41.867Z,100979.94
2017-10-18T01:44:10.251Z,100975.08
2017-10-18T01:46:38.595Z,100966.80
2017-10-18T01:49:07.070Z,100967.91
2017-10-18T01:51:35.417Z,100960.09
2017-10-18T01:54:03.774Z,100951.90
2017-10-18T01:56:32.136Z,100957.12
2017-10-18T01:59:00.452Z,100959.06
2017-10-18T02:01:28.858Z,100958.32
2017-10-18T02:03:57.232Z,100947.95
2017-10-18T02:06:26.326Z,100947.33
2017-10-18T02:08:55.526Z,100946.13
2017-10-18T02:11:24.622Z,100941.70
2017-10-18T02:13:53.006Z,100934.86
2017-10-18T02:16:21.379Z,100931.41
2017-10-18T02:18:49.750Z,100934.66
2017-10-18T02:21:18.855Z,100935.85
2017-10-18T02:23:47.949Z,100935.61
2017-10-18T02:26:17.042Z,100930.42
2017-10-18T02:28:45.398Z,100925.20
2017-10-18T02:31:14.509Z,100922.44
2017-10-18T02:33:43.624Z,100922.41
2017-10-18T02:36:11.965Z,100918.33
2017-10-18T02:38:40.290Z,100924.17
2017-10-18T02:41:08.656Z,100931.61
2017-10-18T02:43:37.025Z,100938.94
2017-10-18T02:46:06.202Z,100939.34
2017-10-18T02:48:35.305Z,100937.79
2017-10-18T02:51:04.435Z,100931.82
2017-10-18T02:53:32.753Z,100932.23
2017-10-18T02:56:01.069Z,100933.27
2017-10-18T02:58:29.419Z,100927.38
2017-10-18T03:00:57.762Z,100924.62
2017-10-18T03:03:26.202Z,100922.08
2017-10-18T03:05:55.281Z,100927.42
2017-10-18T03:08:23.605Z,100930.87
2017-10-18T03:10:51.936Z,100926.71
2017-10-18T03:13:20.282Z,100924.29
2017-10-18T03:15:48.617Z,100923.63
2017-10-18T03:18:16.960Z,100927.42
2017-10-18T03:20:45.296Z,100928.19
2017-10-18T03:23:13.633Z,100932.97
2017-10-18T03:25:42.736Z,100925.13
2017-10-18T03:28:11.089Z,100921.41
2017-10-18T03:30:39.426Z,100922.69
2017-10-18T03:33:07.756Z,100929.31
2017-10-18T03:35:36.098Z,100919.20
2017-10-18T03:38:04.456Z,100920.02
2017-10-18T03:40:32.762Z,100917.20
2017-10-18T03:43:01.098Z,100914.29
2017-10-18T03:45:29.441Z,100912.86
2017-10-18T03:47:57.862Z,100912.81
2017-10-18T03:50:26.185Z,100922.03
2017-10-18T03:52:54.518Z,100919.19
2017-10-18T03:55:22.854Z,100918.11
2017-10-18T03:57:51.189Z,100910.79
2017-10-18T04:00:19.513Z,100913.43
2017-10-18T04:02:47.857Z,100905.61
2017-10-18T04:05:16.163Z,100899.42
2017-10-18T04:07:44.466Z,100901.94
2017-10-18T04:10:13.568Z,100899.88
2017-10-18T04:12:41.899Z,100898.58
2017-10-18T04:15:10.230Z,100895.53
2017-10-18T04:17:38.575Z,100900.92
2017-10-18T04:20:06.897Z,100906.69
2017-10-18T04:22:35.217Z,100904.67
2017-10-18T04:25:03.566Z,100902.69
2017-10-18T04:27:31.866Z,100891.95
2017-10-18T04:30:00.198Z,100893.03
2017-10-18T04:32:28.518Z,100892.20
2017-10-18T04:34:56.845Z,100894.21
2017-10-18T04:37:25.149Z,100896.20
2017-10-18T04:39:53.463Z,100892.41
2017-10-18T04:42:21.785Z,100886.55
2017-10-18T04:44:50.117Z,100894.70
2017-10-18T04:47:18.657Z,100891.69
2017-10-18T04:49:46.977Z,100892.41
2017-10-18T04:52:15.280Z,100902.48
2017-10-18T04:54:44.380Z,100897.71
2017-10-18T04:57:12.706Z,100892.36
2017-10-18T04:59:41.097Z,100889.22
2017-10-18T05:02:09.433Z,100880.56
2017-10-18T05:04:37.793Z,100882.47
2017-10-18T05:07:06.868Z,100888.47
2017-10-18T05:09:35.191Z,100884.66
2017-10-18T05:12:03.506Z,100876.52
2017-10-18T05:14:31.818Z,100881.58
2017-10-18T05:17:00.877Z,100870.22
2017-10-18T05:19:29.192Z,100871.88
2017-10-18T05:21:58.265Z,100874.25
2017-10-18T05:24:26.589Z,100872.86
2017-10-18T05:26:54.902Z,100872.84
2017-10-18T05:29:23.229Z,100872.50
2017-10-18T05:31:51.533Z,100867.70
2017-10-18T05:34:19.849Z,100872.92
2017-10-18T05:36:48.159Z,100885.94
2017-10-18T05:39:16.453Z,100880.05
2017-10-18T05:41:44.765Z,100879.84
2017-10-18T05:44:13.071Z,100878.63
2017-10-18T05:46:42.149Z,100882.48
2017-10-18T05:49:10.457Z,100874.33
2017-10-18T05:51:38.768Z,100878.67
2017-10-18T05:54:07.896Z,100877.75
2017-10-18T05:56:36.209Z,100882.67
2017-10-18T05:59:04.509Z,100879.81
2017-10-18T06:01:32.812Z,100889.18
2017-10-18T06:04:01.121Z,100880.61
2017-10-18T06:06:30.200Z,100877.30
2017-10-18T06:08:58.503Z,100879.56
2017-10-18T06:11:26.824Z,100879.36
2017-10-18T06:13:55.132Z,100892.58
2017-10-18T06:16:23.452Z,100890.91
2017-10-18T06:18:51.749Z,100894.08
2017-10-18T06:21:20.060Z,100887.87
2017-10-18T06:23:48.356Z,100885.13
2017-10-18T06:26:17.433Z,100882.56
2017-10-18T06:28:45.735Z,100890.56
2017-10-18T06:31:14.821Z,100893.71
2017-10-18T06:33:43.885Z,100890.42
2017-10-18T06:36:12.209Z,100891.31
2017-10-18T06:38:41.273Z,100890.56
2017-10-18T06:41:09.585Z,100893.53
2017-10-18T06:43:37.886Z,100891.88
2017-10-18T06:46:06.205Z,100892.78
2017-10-18T06:48:34.509Z,100899.95
2017-10-18T06:51:03.591Z,100901.15
2017-10-18T06:53:32.683Z,100906.88
2017-10-18T06:56:00.994Z,100900.48
2017-10-18T06:58:29.309Z,100897.07
2017-10-18T07:00:57.623Z,100894.36
2017-10-18T07:03:26.694Z,100900.16
2017-10-18T07:05:55.030Z,100900.63
2017-10-18T07:08:23.328Z,100902.80
2017-10-18T07:10:51.637Z,100901.63
2017-10-18T07:13:19.945Z,100903.98
2017-10-18T07:15:48.243Z,100898.70
2017-10-18T07:18:16.594Z,100899.52
2017-10-18T07:20:45.662Z,100898.50
2017-10-18T07:23:13.978Z,100893.64
2017-10-18T07:25:42.286Z,100895.13
2017-10-18T07:28:10.602Z,100892.45
2017-10-18T07:30:39.669Z,100889.91
2017-10-18T07:33:07.978Z,100886.57
2017-10-18T07:35:37.056Z,100887.26
2017-10-18T07:38:05.373Z,100882.59
2017-10-18T07:40:33.681Z,100884.69
2017-10-18T07:43:02.003Z,100877.69
2017-10-18T07:45:31.107Z,100876.20
2017-10-18T07:48:00.204Z,100869.56
2017-10-18T07:50:28.530Z,100867.80
2017-10-18T07:52:56.841Z,100865.58
2017-10-18T07:55:25.145Z,100866.80
2017-10-18T07:57:54.221Z,100871.52
2017-10-18T08:00:23.306Z,100867.09
2017-10-18T08:02:51.617Z,100868.84
2017-10-18T08:05:19.927Z,100864.97
2017-10-18T08:07:48.236Z,100867.23
2017-10-18T08:10:16.542Z,100874.95
2017-10-18T08:12:45.625Z,100876.12
2017-10-18T08:15:14.710Z,100875.16
2017-10-18T08:17:43.026Z,100875.64
2017-10-18T08:20:11.333Z,100868.97
2017-10-18T08:22:39.655Z,100868.02
2017-10-18T08:25:08.729Z,100869.83
2017-10-18T08:27:37.044Z,100879.67
2017-10-18T08:30:05.346Z,100870.83
2017-10-18T08:32:33.658Z,100871.73
2017-10-18T08:35:01.961Z,100870.30
2017-10-18T08:37:31.033Z,100865.36
2017-10-18T08:39:59.344Z,100871.81
2017-10-18T08:42:27.661Z,100876.67
2017-10-18T08:44:55.961Z,100869.20
2017-10-18T08:47:24.281Z,100862.51
2017-10-18T08:49:52.593Z,100859.16
2017-10-18T08:52:20.930Z,100862.70
2017-10-18T08:54:49.233Z,100860.55
2017-10-18T08:57:17.633Z,100864.48
2017-10-18T08:59:45.935Z,100867.54
2017-10-18T09:02:14.250Z,100857.90
2017-10-18T09:04:42.571Z,100861.69
2017-10-18T09:07:10.893Z,100853.22
2017-10-18T09:09:39.194Z,100845.88
2017-10-18T09:12:07.512Z,100847.41
2017-10-18T09:14:35.813Z,100855.35
2017-10-18T09:17:04.944Z,100855.05
2017-10-18T09:19:33.251Z,100857.17
2017-10-18T09:22:16.445Z,100854.42
2017-10-18T09:24:44.744Z,100844.87
2017-10-18T09:27:13.051Z,100846.52
2017-10-18T09:29:41.361Z,100840.72
2017-10-18T09:32:09.665Z,100842.38
2017-10-18T09:34:37.976Z,100850.37
2017-10-18T09:37:06.282Z,100851.69
2017-10-18T09:39:35.381Z,100848.62
2017-10-18T09:42:04.445Z,100837.00
2017-10-18T09:44:32.754Z,100841.15
2017-10-18T09:47:01.832Z,100846.16
2017-10-18T09:49:30.910Z,100849.47
2017-10-18T09:51:59.216Z,100844.80
2017-10-18T09:54:27.546Z,100844.00
2017-10-18T09:56:56.618Z,100834.92
2017-10-18T09:59:24.936Z,100827.96
2017-10-18T10:01:53.238Z,100833.66
2017-10-18T10:04:22.329Z,100827.38
2017-10-18T10:06:51.400Z,100838.14
2017-10-18T10:09:19.721Z,100827.55
2017-10-18T10:11:48.029Z,100826.52
2017-10-18T10:14:16.345Z,100826.19
2017-10-18T10:16:44.646Z,100827.41
2017-10-18T10:19:13.726Z,100836.73
2017-10-18T10:21:42.806Z,100827.96
2017-10-18T10:24:11.137Z,100832.70
2017-10-18T10:26:39.457Z,100823.63
2017-10-18T10:29:07.774Z,100824.75
2017-10-18T10:31:36.077Z,100826.15
2017-10-18T10:34:04.401Z,100828.38
2017-10-18T10:36:32.709Z,100826.94
2017-10-18T10:39:01.022Z,100823.45
2017-10-18T10:41:29.321Z,100822.63
2017-10-18T10:43:57.629Z,100816.51
2017-10-18T10:46:25.938Z,100815.48
2017-10-18T10:48:54.254Z,100816.75
2017-10-18T10:51:22.557Z,100819.23
2017-10-18T10:53:50.964Z,100812.95
2017-10-18T10:56:19.266Z,100811.27
2017-10-18T10:58:47.578Z,100804.17
2017-10-18T11:01:15.885Z,100808.67
2017-10-18T11:03:44.209Z,100805.59
2017-10-18T11:06:12.521Z,100806.48
2017-10-18T11:08:41.605Z,100806.91
2017-10-18T11:11:10.682Z,100801.66
2017-10-18T11:13:39.002Z,100793.06
2017-10-18T11:16:07.302Z,100789.46
2017-10-18T11:18:35.619Z,100788.17
2017-10-18T11:21:03.921Z,100785.20
2017-10-18T11:23:33.001Z,100786.59
2017-10-18T11:26:01.302Z,100781.42
2017-10-18T11:28:29.625Z,100784.66
2017-10-18T11:30:57.929Z,100783.77
2017-10-18T11:33:26.238Z,100775.30
2017-10-18T11:35:54.540Z,100771.84
2017-10-18T11:38:22.849Z,100776.92
2017-10-18T11:40:51.149Z,100777.78
2017-10-18T11:43:20.232Z,100775.30
2017-10-18T11:45:48.532Z,100768.77
2017-10-18T11:48:17.596Z,100768.66
2017-10-18T11:50:45.910Z,100763.80
2017-10-18T11:53:14.214Z,100767.34
2017-10-18T11:55:42.522Z,100764.00
2017-10-18T11:58:10.844Z,100769.11
2017-10-18T12:00:39.161Z,100762.63
2017-10-18T12:03:07.470Z,100762.59
2017-10-18T12:05:35.798Z,100763.34
2017-10-18T12:08:04.105Z,100757.38
2017-10-18T12:10:32.429Z,100754.98
2017-10-18T12:13:00.733Z,100738.65
2017-10-18T12:15:29.049Z,100731.29
2017-10-18T12:17:57.378Z,100733.62
2017-10-18T12:20:25.689Z,100731.38
2017-10-18T12:22:53.997Z,100727.77
2017-10-18T12:25:23.087Z,100730.93
2017-10-18T12:27:51.394Z,100730.52
2017-10-18T12:30:19.744Z,100727.44
2017-10-18T12:32:48.812Z,100729.11
2017-10-18T12:35:17.125Z,100722.84
2017-10-18T12:37:46.192Z,100720.72
2017-10-18T12:40:14.513Z,100721.41
2017-10-18T12:42:42.816Z,100714.48
2017-10-18T12:45:11.163Z,100715.88
2017-10-18T12:47:39.481Z,100713.92
2017-10-18T12:50:07.797Z,100718.85
2017-10-18T12:52:36.874Z,100718.75
2017-10-18T12:55:05.217Z,100709.53
2017-10-18T12:57:33.525Z,100708.22
2017-10-18T13:00:01.839Z,100709.47
2017-10-18T13:02:30.157Z,100705.05
2017-10-18T13:04:58.470Z,100709.64
2017-10-18T13:07:27.550Z,100701.27
2017-10-18T13:09:55.867Z,100701.73
2017-10-18T13:12:24.946Z,100703.85
2017-10-18T13:14:54.033Z,100692.84
2017-10-18T13:17:22.349Z,100687.38
2017-10-18T13:19:50.665Z,100687.27
2017-10-18T13:22:18.965Z,100679.31
2017-10-18T13:24:47.286Z,100682.66
2017-10-18T13:27:15.590Z,100674.13
2017-10-18T13:29:43.932Z,100673.47
2017-10-18T13:32:12.233Z,100672.39
2017-10-18T13:34:40.545Z,100667.56
2017-10-18T13:37:08.861Z,100667.61
2017-10-18T13:39:37.173Z,100673.49
2017-10-18T13:42:05.477Z,100671.27
2017-10-18T13:44:33.785Z,100669.30
2017-10-18T13:47:02.854Z,100681.56
2017-10-18T13:49:31.179Z,100669.71
2017-10-18T13:51:59.477Z,100665.56
2017-10-18T13:54:27.835Z,100667.86
2017-10-18T13:56:56.141Z,100665.95
2017-10-18T13:59:24.449Z,100664.53
2017-10-18T14:01:52.761Z,100660.50
2017-10-18T14:04:21.146Z,100655.88
2017-10-18T14:06:49.445Z,100652.69
2017-10-18T14:09:17.745Z,100650.73
2017-10-18T14:11:46.068Z,100649.19
2017-10-18T14:14:14.373Z,100643.47
2017-10-18T14:16:42.685Z,100647.24
2017-10-18T14:19:10.994Z,100646.09
2017-10-18T14:21:39.304Z,100646.61
2017-10-18T14:24:07.610Z,100647.89
2017-10-18T14:26:35.926Z,100651.52
2017-10-18T14:29:04.226Z,100653.45
2017-10-18T14:31:32.536Z,100650.16
2017-10-18T14:34:00.848Z,100646.58
2017-10-18T14:36:29.929Z,100648.55
2017-10-18T14:38:58.997Z,100651.23
2017-10-18T14:41:27.322Z,100651.92
2017-10-18T14:43:55.629Z,100648.30
2017-10-18T14:46:23.954Z,100653.59
2017-10-18T14:48:53.026Z,100658.81
2017-10-18T14:51:21.353Z,100651.69
2017-10-18T14:53:49.661Z,100645.28
2017-10-18T14:56:18.738Z,100651.41
2017-10-18T14:58:47.036Z,100646.70
2017-10-18T15:01:15.344Z,100648.77
2017-10-18T15:03:43.651Z,100650.47
2017-10-18T15:06:11.962Z,100648.65
2017-10-18T15:08:40.274Z,100649.47
2017-10-18T15:11:08.601Z,100651.25
2017-10-18T15:13:36.904Z,100646.19
2017-10-18T15:16:05.224Z,100645.02
2017-10-18T15:18:34.297Z,100637.78
2017-10-18T15:21:02.642Z,100646.66
2017-10-18T15:23:30.953Z,100651.63
2017-10-18T15:25:59.271Z,100648.88
2017-10-18T15:28:27.577Z,100644.92
2017-10-18T15:30:55.885Z,100648.31
2017-10-18T15:33:24.193Z,100640.92
2017-10-18T15:35:52.526Z,100640.74
2017-10-18T15:38:20.839Z,100637.91
2017-10-18T15:40:49.926Z,100639.06
2017-10-18T15:43:18.993Z,100629.77
2017-10-18T15:45:48.163Z,100633.66
2017-10-18T15:48:17.656Z,100634.51
2017-10-18T15:50:45.960Z,100632.78
2017-10-18T15:53:14.262Z,100636.95
2017-10-18T15:55:42.586Z,100646.59
2017-10-18T15:58:10.887Z,100649.91
2017-10-18T16:00:39.205Z,100646.38
2017-10-18T16:03:07.525Z,100648.03
2017-10-18T16:05:35.841Z,100646.13
2017-10-18T16:08:04.156Z,100648.88
2017-10-18T16:10:32.477Z,100652.58
2017-10-18T16:13:00.780Z,100645.27
2017-10-18T16:15:29.098Z,100652.42
2017-10-18T16:17:57.397Z,100645.27
2017-10-18T16:20:25.709Z,100650.33
2017-10-18T16:22:54.015Z,100657.05
2017-10-18T16:25:23.124Z,100657.27
2017-10-18T16:27:51.422Z,100660.41
2017-10-18T16:30:19.725Z,100657.95
2017-10-18T16:32:48.045Z,100654.52
2017-10-18T16:35:16.357Z,100652.59
2017-10-18T16:37:44.677Z,100654.36
2017-10-18T16:40:12.985Z,100652.16
2017-10-18T16:42:41.305Z,100645.84
2017-10-18T16:45:09.622Z,100650.97
2017-10-18T16:47:38.701Z,100645.47
2017-10-18T16:50:07.009Z,100640.52
2017-10-18T16:52:35.333Z,100643.81
2017-10-18T16:55:03.647Z,100641.75
2017-10-18T16:57:32.726Z,100640.49
2017-10-18T17:00:01.950Z,100640.20
2017-10-18T17:02:31.035Z,100635.66
2017-10-18T17:05:00.117Z,100633.68
2017-10-18T17:07:28.429Z,100626.98
2017-10-18T17:09:56.737Z,100629.45
2017-10-18T17:12:25.045Z,100639.69
2017-10-18T17:14:53.353Z,100631.61
2017-10-18T17:17:21.689Z,100636.92
2017-10-18T17:19:49.996Z,100632.34
2017-10-18T17:22:19.089Z,100636.44
2017-10-18T17:24:48.161Z,100637.20
2017-10-18T17:27:16.481Z,100631.23
2017-10-18T17:29:44.786Z,100632.80
2017-10-18T17:32:13.115Z,100633.72
2017-10-18T17:34:42.213Z,100632.17
2017-10-18T17:37:11.303Z,100625.39
2017-10-18T17:39:40.376Z,100624.77
2017-10-18T17:42:08.715Z,100623.92
2017-10-18T17:44:37.017Z,100629.06
2017-10-18T17:47:05.332Z,100632.50
2017-10-18T17:49:34.421Z,100633.87
2017-10-18T17:52:02.744Z,100636.21
2017-10-18T17:54:31.057Z,100633.76
2017-10-18T17:56:59.393Z,100635.73
2017-10-18T17:59:27.753Z,100639.05
2017-10-18T18:01:56.830Z,100636.34
2017-10-18T18:04:25.138Z,100636.98
2017-10-18T18:06:53.469Z,100633.89
2017-10-18T18:09:21.796Z,100632.69
2017-10-18T18:11:50.134Z,100634.19
2017-10-18T18:14:18.446Z,100638.48
2017-10-18T18:16:46.749Z,100646.28
2017-10-18T18:19:15.069Z,100647.74
2017-10-18T18:21:44.164Z,100655.16
2017-10-18T18:24:12.474Z,100650.38
2017-10-18T18:26:40.782Z,100663.16
2017-10-18T18:29:09.097Z,100666.61
2017-10-18T18:31:37.513Z,100663.34
2017-10-18T18:34:05.829Z,100663.25
2017-10-18T18:36:34.746Z,100657.88
2017-10-18T18:39:03.071Z,100661.89
2017-10-18T18:41:31.388Z,100658.39
2017-10-18T18:43:59.707Z,100659.93
2017-10-18T18:46:28.010Z,100666.83
2017-10-18T18:48:56.326Z,100667.11
2017-10-18T18:51:24.637Z,100658.33
2017-10-18T18:53:53.129Z,100661.09
2017-10-18T18:56:21.457Z,100652.69
2017-10-18T18:58:49.766Z,100661.95
2017-10-18T19:01:18.834Z,100661.09
2017-10-18T19:03:47.145Z,100660.72
2017-10-18T19:06:15.456Z,100666.02
2017-10-18T19:08:43.773Z,100668.44
2017-10-18T19:11:12.077Z,100661.97
2017-10-18T19:13:40.397Z,100662.94
2017-10-18T19:16:08.707Z,100663.89
2017-10-18T19:18:37.792Z,100661.97
2017-10-18T19:21:06.097Z,100664.56
2017-10-18T19:23:35.179Z,100665.09
2017-10-18T19:26:04.258Z,100656.77
2017-10-18T19:28:32.588Z,100661.45
2017-10-18T19:31:00.911Z,100661.45
2017-10-18T19:33:29.217Z,100660.14
2017-10-18T19:35:58.336Z,100663.17
2017-10-18T19:38:26.637Z,100663.48
2017-10-18T19:40:54.960Z,100658.92
2017-10-18T19:43:24.029Z,100663.59
2017-10-18T19:45:52.344Z,100657.63
2017-10-18T19:48:21.408Z,100656.42
2017-10-18T19:50:49.717Z,100660.23
2017-10-18T19:53:18.022Z,100662.54
2017-10-18T19:55:46.333Z,100659.48
2017-10-18T19:58:14.642Z,100659.16
2017-10-18T20:00:43.725Z,100654.33
2017-10-18T20:03:12.861Z,100653.22
2017-10-18T20:05:41.179Z,100652.61
2017-10-18T20:08:09.496Z,100651.96
2017-10-18T20:10:37.812Z,100649.03
2017-10-18T20:13:06.129Z,100657.33
2017-10-18T20:15:34.445Z,100655.62
2017-10-18T20:18:02.768Z,100657.89
2017-10-18T20:20:31.099Z,100660.47
2017-10-18T20:22:59.409Z,100659.05
2017-10-18T20:25:27.738Z,100654.02
2017-10-18T20:27:56.046Z,100654.20
2017-10-18T20:30:24.358Z,100650.33
2017-10-18T20:32:52.663Z,100655.84
2017-10-18T20:35:21.769Z,100654.16
2017-10-18T20:37:50.077Z,100660.17
2017-10-18T20:40:18.386Z,100661.93
2017-10-18T20:42:46.700Z,100662.08
2017-10-18T20:45:15.011Z,100662.87
2017-10-18T20:47:43.360Z,100656.83
2017-10-18T20:50:11.657Z,100662.56
2017-10-18T20:52:39.966Z,100672.62
2017-10-18T20:55:08.264Z,100676.30
2017-10-18T20:57:37.341Z,100671.13
2017-10-18T21:00:05.649Z,100670.87
2017-10-18T21:02:34.729Z,100661.95
2017-10-18T21:05:03.830Z,100660.19
2017-10-18T21:07:32.909Z,100663.10
2017-10-18T21:10:01.210Z,100662.98
2017-10-18T21:12:30.289Z,100662.38
2017-10-18T21:14:58.593Z,100665.22
2017-10-18T21:17:26.910Z,100667.05
2017-10-18T21:19:55.210Z,100657.00
2017-10-18T21:22:23.528Z,100658.74
2017-10-18T21:24:51.823Z,100656.02
2017-10-18T21:27:20.846Z,100656.25
2017-10-18T21:29:49.145Z,100645.62
2017-10-18T21:32:17.453Z,100645.11
2017-10-18T21:34:45.761Z,100648.78
2017-10-18T21:37:14.081Z,100647.48
2017-10-18T21:39:43.152Z,100646.45
2017-10-18T21:42:11.466Z,100641.23
2017-10-18T21:44:39.774Z,100646.73
2017-10-18T21:47:08.090Z,100637.50
2017-10-18T21:49:36.401Z,100636.33
2017-10-18T21:52:05.481Z,100638.42
2017-10-18T21:54:34.556Z,100643.26
2017-10-18T21:57:02.856Z,100643.95
2017-10-18T21:59:31.929Z,100634.03
2017-10-18T22:02:00.230Z,100635.36
2017-10-18T22:04:29.309Z,100636.81
2017-10-18T22:06:57.622Z,100638.05
2017-10-18T22:09:25.940Z,100634.41
2017-10-18T22:11:54.238Z,100634.91
2017-10-18T22:14:22.545Z,100638.96
2017-10-18T22:16:50.853Z,100645.50
2017-10-18T22:19:19.165Z,100642.37
2017-10-18T22:21:47.472Z,100648.05
2017-10-18T22:24:16.551Z,100644.25
2017-10-18T22:26:44.861Z,100648.64
2017-10-18T22:29:13.170Z,100648.91
2017-10-18T22:31:41.473Z,100653.55
2017-10-18T22:34:09.794Z,100653.09
2017-10-18T22:36:38.091Z,100656.50
2017-10-18T22:39:06.397Z,100646.56
2017-10-18T22:41:34.707Z,100642.05
2017-10-18T22:44:03.781Z,100644.36
2017-10-18T22:46:32.857Z,100639.92
2017-10-18T22:49:01.169Z,100645.14
2017-10-18T22:51:30.238Z,100646.89
2017-10-18T22:53:58.545Z,100644.45
2017-10-18T22:56:27.605Z,100643.47
2017-10-18T22:58:55.922Z,100641.56
2017-10-18T23:01:24.994Z,100639.45
2017-10-18T23:03:53.320Z,100636.41
2017-10-18T23:06:21.635Z,100641.69
2017-10-18T23:08:49.971Z,100637.89
2017-10-18T23:11:18.290Z,100644.06
2017-10-18T23:13:46.624Z,100640.40
2017-10-18T23:16:14.929Z,100635.14
2017-10-18T23:18:43.250Z,100633.08
2017-10-18T23:21:12.378Z,100623.63
2017-10-18T23:23:40.689Z,100631.97
2017-10-18T23:26:08.989Z,100631.79
2017-10-18T23:28:38.089Z,100631.20
2017-10-18T23:31:07.223Z,100635.29
2017-10-18T23:33:35.537Z,100628.50
2017-10-18T23:36:03.847Z,100630.92
2017-10-18T23:38:32.933Z,100638.25
2017-10-18T23:41:02.014Z,100639.25
2017-10-18T23:43:30.346Z,100641.25
2017-10-18T23:45:58.649Z,100643.59
2017-10-18T23:48:26.961Z,100642.91
2017-10-18T23:50:56.058Z,100632.69
2017-10-18T23:53:25.157Z,100634.99
2017-10-18T23:55:54.228Z,100636.89
2017-10-18T23:58:22.537Z,100643.22
